Main page
METAR-TAF:

METAR-TAF

Airports :

Kaunas Airport

Kaunas, Lithuania

latitude: 54-54N, longitude: 023-55-12E, elevation: 77 m

Current weather observation

The report was made 19 minutes ago, at 06:50 UTC
Wind 3 kt from the Southwest, varying between South and West/Southwest
Temperature 0°C
Humidity 74%
Pressure 1043 hPa
Visibility 10 km or more
Broken clouds at a height of 2700 ft

METAR: EYKA 080650Z 23003KT 190V250 9999 BKN027 M00/M04 Q1043

Time: 09:09 (07:09 UTC)

Forecast

The report was made 2 hours and 9 minutes ago, at 05:00 UTC
Forecast valid from 08 at 06 UTC to 09 at 06 UTC
Wind 8 kt from the Southwest
Visibility: 9000 m
Broken clouds at a height of 2000 ft
Temporary
from 08 at 06 UTC to 08 at 09 UTC
Overcast at a height of 1000 ft
Becoming
from 08 at 16 UTC to 08 at 18 UTC
Visibility 10 km or more
no clouds below 1500 m and no cumulonimbus

TAF: EYKA 080500Z 0806/0906 22008KT 9000 BKN020 TEMPO 0806/0809 OVC010 BECMG 0816/0818 CAVOK

Weather observations and forecasts of more than 4000 airports (METAR and TAF reports).

The available stations are represented by yellow and red dots on the map.

Hover mouse over dot to see the name of the station.

Then click to see weather observations and forecasts.

To change the map : click on the green buttons with a black cross to zoom in, on the green button with a dash to zoom out, or on the green arrows for adjacent maps.


METAR-TAF: